createdAt,value
2017-08-23T00:01:56.980Z,90.40
2017-08-23T00:04:23.008Z,90.10
2017-08-23T00:06:49.033Z,90.60
2017-08-23T00:09:15.066Z,90.60
2017-08-23T00:11:41.093Z,90.70
2017-08-23T00:14:07.128Z,90.70
2017-08-23T00:16:33.141Z,90.70
2017-08-23T00:18:59.173Z,90.50
2017-08-23T00:21:25.208Z,90.70
2017-08-23T00:23:51.264Z,90.90
2017-08-23T00:26:17.281Z,90.70
2017-08-23T00:28:43.314Z,90.90
2017-08-23T00:31:09.373Z,90.90
2017-08-23T00:33:35.401Z,90.90
2017-08-23T00:36:01.440Z,91.00
2017-08-23T00:38:27.481Z,91.00
2017-08-23T00:40:53.521Z,91.10
2017-08-23T00:43:19.557Z,91.10
2017-08-23T00:45:45.617Z,91.20
2017-08-23T00:48:11.641Z,91.00
2017-08-23T00:50:37.765Z,91.30
2017-08-23T00:53:03.909Z,91.20
2017-08-23T00:55:29.964Z,91.60
2017-08-23T00:57:55.993Z,91.50
2017-08-23T01:00:22.012Z,91.50
2017-08-23T01:02:48.048Z,91.40
2017-08-23T01:05:14.113Z,91.60
2017-08-23T01:07:40.149Z,91.70
2017-08-23T01:10:06.189Z,91.50
2017-08-23T01:12:32.223Z,91.50
2017-08-23T01:14:58.253Z,91.60
2017-08-23T01:17:24.283Z,91.60
2017-08-23T01:19:50.306Z,91.70
2017-08-23T01:22:16.338Z,91.60
2017-08-23T01:24:42.360Z,91.70
2017-08-23T01:27:08.410Z,91.90
2017-08-23T01:29:34.436Z,92.00
2017-08-23T01:32:00.477Z,91.90
2017-08-23T01:34:26.511Z,91.80
2017-08-23T01:36:52.589Z,91.90
2017-08-23T01:39:18.626Z,91.60
2017-08-23T01:41:44.632Z,92.10
2017-08-23T01:44:10.654Z,92.70
2017-08-23T01:46:36.666Z,92.80
2017-08-23T01:49:02.697Z,93.00
2017-08-23T01:51:28.733Z,93.20
2017-08-23T01:53:54.778Z,93.20
2017-08-23T01:56:20.824Z,93.50
2017-08-23T01:58:46.869Z,93.40
2017-08-23T02:01:12.873Z,93.40
2017-08-23T02:03:38.884Z,93.40
2017-08-23T02:06:04.922Z,93.60
2017-08-23T02:08:30.970Z,93.50
2017-08-23T02:10:57.010Z,93.50
2017-08-23T02:13:23.021Z,93.40
2017-08-23T02:15:49.075Z,93.40
2017-08-23T02:18:15.096Z,93.20
2017-08-23T02:20:41.133Z,93.10
2017-08-23T02:23:07.145Z,93.10
2017-08-23T02:25:33.189Z,93.30
2017-08-23T02:27:59.204Z,93.40
2017-08-23T02:30:25.277Z,93.20
2017-08-23T02:32:51.303Z,93.30
2017-08-23T02:35:17.344Z,93.20
2017-08-23T02:37:43.373Z,93.10
2017-08-23T02:40:09.413Z,93.20
2017-08-23T02:42:35.445Z,93.50
2017-08-23T02:45:01.477Z,93.60
2017-08-23T02:47:27.509Z,93.70
2017-08-23T02:49:53.529Z,93.70
2017-08-23T02:52:20.307Z,93.80
2017-08-23T02:54:46.329Z,93.80
2017-08-23T02:57:12.353Z,93.70
2017-08-23T02:59:38.391Z,93.60
2017-08-23T03:02:04.422Z,93.70
2017-08-23T03:04:30.445Z,93.80
2017-08-23T03:06:56.492Z,93.80
2017-08-23T03:09:22.530Z,93.60
2017-08-23T03:11:48.548Z,93.40
2017-08-23T03:14:14.585Z,93.30
2017-08-23T03:16:40.612Z,93.10
2017-08-23T03:19:06.646Z,93.10
2017-08-23T03:21:32.674Z,93.00
2017-08-23T03:23:58.722Z,93.00
2017-08-23T03:26:24.736Z,92.90
2017-08-23T03:28:50.769Z,92.80
2017-08-23T03:31:16.785Z,92.70
2017-08-23T03:33:42.821Z,92.70
2017-08-23T03:36:08.866Z,92.70
2017-08-23T03:38:34.917Z,92.60
2017-08-23T03:41:00.942Z,92.70
2017-08-23T03:43:26.973Z,92.90
2017-08-23T03:45:52.985Z,93.20
2017-08-23T03:48:19.026Z,93.30
2017-08-23T03:50:45.056Z,93.40
2017-08-23T03:53:11.082Z,93.40
2017-08-23T03:55:37.861Z,93.50
2017-08-23T03:58:04.003Z,93.50
2017-08-23T04:00:30.041Z,93.50
2017-08-23T04:02:56.077Z,93.30
2017-08-23T04:05:22.113Z,93.30
2017-08-23T04:07:48.145Z,93.20
2017-08-23T04:10:14.212Z,93.30
2017-08-23T04:12:40.247Z,93.30
2017-08-23T04:15:06.292Z,93.20
2017-08-23T04:17:32.313Z,93.30
2017-08-23T04:19:58.357Z,93.30
2017-08-23T04:22:24.373Z,93.10
2017-08-23T04:24:50.400Z,93.10
2017-08-23T04:27:16.429Z,93.10
2017-08-23T04:29:42.479Z,92.90
2017-08-23T04:32:08.513Z,93.00
2017-08-23T04:34:34.540Z,92.90
2017-08-23T04:37:00.577Z,92.90
2017-08-23T04:39:26.634Z,93.00
2017-08-23T04:41:52.673Z,93.00
2017-08-23T04:44:18.696Z,92.90
2017-08-23T04:46:44.733Z,92.90
2017-08-23T04:49:10.756Z,92.80
2017-08-23T04:51:36.787Z,92.80
2017-08-23T04:54:02.813Z,92.90
2017-08-23T04:56:28.846Z,92.90
2017-08-23T04:58:54.869Z,92.80
2017-08-23T05:01:20.909Z,92.60
2017-08-23T05:03:46.945Z,93.00
2017-08-23T05:06:12.973Z,93.00
2017-08-23T05:08:39.037Z,92.90
2017-08-23T05:11:05.053Z,93.10
2017-08-23T05:13:31.093Z,93.10
2017-08-23T05:15:57.114Z,93.30
2017-08-23T05:18:23.142Z,93.20
2017-08-23T05:20:49.266Z,93.90
2017-08-23T05:23:15.424Z,93.50
2017-08-23T05:25:41.453Z,93.40
2017-08-23T05:28:07.512Z,93.30
2017-08-23T05:30:33.764Z,93.30
2017-08-23T05:33:00.014Z,93.20
2017-08-23T05:35:26.133Z,93.30
2017-08-23T05:37:52.170Z,93.40
2017-08-23T05:40:18.238Z,93.30
2017-08-23T05:42:44.269Z,93.50
2017-08-23T05:45:10.326Z,93.50
2017-08-23T05:47:36.354Z,93.50
2017-08-23T05:50:02.401Z,93.50
2017-08-23T05:52:28.457Z,93.50
2017-08-23T05:54:54.498Z,93.50
2017-08-23T05:57:20.532Z,93.40
2017-08-23T05:59:46.589Z,93.30
2017-08-23T06:02:12.642Z,93.20
2017-08-23T06:04:38.690Z,93.30
2017-08-23T06:07:04.721Z,93.10
2017-08-23T06:09:30.773Z,93.20
2017-08-23T06:11:57.633Z,92.90
2017-08-23T06:14:23.697Z,93.00
2017-08-23T06:16:49.766Z,92.90
2017-08-23T06:19:15.801Z,93.00
2017-08-23T06:21:41.848Z,93.10
2017-08-23T06:24:07.882Z,92.90
2017-08-23T06:26:33.933Z,92.80
2017-08-23T06:28:59.981Z,92.60
2017-08-23T06:31:26.044Z,92.60
2017-08-23T06:33:52.077Z,92.50
2017-08-23T06:36:18.112Z,92.30
2017-08-23T06:38:44.134Z,92.20
2017-08-23T06:41:10.210Z,92.10
2017-08-23T06:43:36.250Z,91.90
2017-08-23T06:46:02.308Z,91.90
2017-08-23T06:48:28.348Z,91.70
2017-08-23T06:50:54.405Z,92.00
2017-08-23T06:53:20.449Z,91.60
2017-08-23T06:55:46.482Z,91.90
2017-08-23T06:58:12.509Z,91.80
2017-08-23T07:00:38.547Z,91.70
2017-08-23T07:03:04.598Z,91.50
2017-08-23T07:05:30.625Z,91.40
2017-08-23T07:07:56.649Z,91.10
2017-08-23T07:10:22.666Z,90.70
2017-08-23T07:12:48.698Z,90.60
2017-08-23T07:15:14.741Z,90.50
2017-08-23T07:17:40.769Z,90.40
2017-08-23T07:20:06.805Z,90.40
2017-08-23T07:22:32.840Z,90.40
2017-08-23T07:24:58.863Z,90.30
2017-08-23T07:27:24.885Z,89.40
2017-08-23T07:29:50.919Z,88.80
2017-08-23T07:32:16.948Z,88.40
2017-08-23T07:34:49.933Z,88.20
2017-08-23T07:37:15.970Z,88.10
2017-08-23T07:39:42.005Z,87.50
2017-08-23T07:42:08.022Z,86.70
2017-08-23T07:44:34.057Z,85.10
2017-08-23T07:47:00.069Z,85.10
2017-08-23T07:49:26.097Z,84.50
2017-08-23T07:51:52.133Z,84.40
2017-08-23T07:54:18.157Z,84.10
2017-08-23T07:56:44.217Z,83.70
2017-08-23T07:59:10.249Z,83.30
2017-08-23T08:01:36.277Z,82.10
2017-08-23T08:04:02.313Z,80.80
2017-08-23T08:06:28.336Z,79.10
2017-08-23T08:08:54.385Z,78.60
2017-08-23T08:11:20.409Z,78.40
2017-08-23T08:13:46.424Z,77.70
2017-08-23T08:16:12.456Z,77.90
2017-08-23T08:18:38.474Z,78.70
2017-08-23T08:21:04.510Z,78.30
2017-08-23T08:23:30.526Z,78.50
2017-08-23T08:25:56.558Z,79.80
2017-08-23T08:28:22.573Z,80.10
2017-08-23T08:30:48.607Z,79.20
2017-08-23T08:33:14.634Z,79.00
2017-08-23T08:35:40.649Z,78.30
2017-08-23T08:38:06.661Z,77.50
2017-08-23T08:40:32.681Z,78.40
2017-08-23T08:42:58.690Z,76.20
2017-08-23T08:45:24.708Z,76.60
2017-08-23T08:47:50.733Z,76.00
2017-08-23T08:50:16.758Z,75.40
2017-08-23T08:52:42.796Z,73.30
2017-08-23T08:55:08.816Z,73.00
2017-08-23T08:57:34.845Z,70.60
2017-08-23T09:00:00.875Z,69.50
2017-08-23T09:02:26.923Z,69.10
2017-08-23T09:04:53.017Z,66.50
2017-08-23T09:07:19.057Z,64.60
2017-08-23T09:09:45.081Z,64.70
2017-08-23T09:12:11.116Z,65.90
2017-08-23T09:14:37.144Z,65.60
2017-08-23T09:17:03.181Z,64.90
2017-08-23T09:19:29.216Z,66.40
2017-08-23T09:21:55.221Z,64.80
2017-08-23T09:24:21.265Z,66.10
2017-08-23T09:26:47.303Z,64.60
2017-08-23T10:25:54.098Z,61.10
2017-08-23T10:28:20.148Z,41.80
2017-08-23T10:30:46.172Z,42.80
2017-08-23T11:32:19.409Z,42.00
2017-08-23T11:34:45.469Z,35.60
2017-08-23T11:37:11.497Z,35.10
2017-08-23T11:39:37.537Z,35.40
2017-08-23T11:42:03.566Z,37.50
2017-08-23T11:44:29.609Z,35.30
2017-08-23T11:46:55.636Z,37.10
2017-08-23T11:49:21.653Z,38.80
2017-08-23T11:51:47.700Z,37.60
2017-08-23T11:54:13.725Z,38.20
2017-08-23T11:56:39.753Z,37.40
2017-08-23T11:59:05.786Z,36.60
2017-08-23T12:01:31.825Z,37.30
2017-08-23T12:03:57.857Z,36.60
2017-08-23T12:06:23.917Z,37.70
2017-08-23T12:08:49.945Z,43.30
2017-08-23T12:11:15.995Z,39.90
2017-08-23T12:13:42.025Z,37.90
2017-08-23T12:16:08.058Z,39.20
2017-08-23T12:18:34.080Z,36.60
2017-08-23T12:21:00.093Z,37.60
2017-08-23T12:23:26.121Z,39.50
2017-08-23T12:25:52.184Z,39.90
2017-08-23T12:28:18.208Z,39.80
2017-08-23T12:30:44.233Z,38.60
2017-08-23T12:33:10.266Z,38.60
2017-08-23T12:35:36.290Z,36.60
2017-08-23T12:38:02.322Z,35.40
2017-08-23T12:40:28.345Z,35.10
2017-08-23T12:42:54.406Z,34.50
2017-08-23T12:45:20.427Z,34.70
2017-08-23T12:47:46.468Z,35.30
2017-08-23T12:50:12.507Z,34.00
2017-08-23T12:52:38.533Z,33.60
2017-08-23T12:55:04.601Z,34.30
2017-08-23T12:57:30.617Z,35.60
2017-08-23T12:59:56.644Z,36.50
2017-08-23T13:02:22.695Z,36.10
2017-08-23T13:04:48.742Z,37.60
2017-08-23T13:07:14.770Z,39.80
2017-08-23T13:09:40.821Z,36.40
2017-08-23T13:12:06.848Z,35.90
2017-08-23T13:14:32.877Z,36.90
2017-08-23T13:16:58.903Z,39.30
2017-08-23T13:19:24.933Z,36.40
2017-08-23T13:21:50.960Z,37.60
2017-08-23T13:24:17.017Z,39.20
2017-08-23T13:26:43.058Z,40.60
2017-08-23T13:29:09.077Z,41.20
2017-08-23T13:31:35.101Z,38.50
2017-08-23T13:34:01.117Z,39.20
2017-08-23T13:36:27.141Z,41.80
2017-08-23T13:38:53.149Z,39.00
2017-08-23T13:41:19.185Z,39.80
2017-08-23T13:43:45.217Z,37.90
2017-08-23T13:46:11.241Z,35.40
2017-08-23T13:48:37.264Z,37.30
2017-08-23T13:51:03.299Z,36.20
2017-08-23T13:53:29.310Z,35.00
2017-08-23T13:55:55.336Z,35.30
2017-08-23T13:58:21.432Z,35.50
2017-08-23T14:00:47.433Z,37.20
2017-08-23T14:03:13.481Z,35.10
2017-08-23T14:05:39.504Z,33.60
2017-08-23T14:08:05.532Z,33.70
2017-08-23T14:10:31.551Z,37.20
2017-08-23T14:12:57.593Z,33.10
2017-08-23T14:15:23.631Z,32.90
2017-08-23T14:17:49.701Z,32.60
2017-08-23T14:20:15.737Z,30.50
2017-08-23T14:22:41.762Z,30.80
2017-08-23T14:25:07.776Z,32.40
2017-08-23T14:27:33.811Z,34.20
2017-08-23T14:29:59.864Z,33.80
2017-08-23T14:32:25.902Z,32.20
2017-08-23T14:34:51.925Z,32.40
2017-08-23T14:37:17.977Z,31.60
2017-08-23T14:39:44.005Z,31.80
2017-08-23T14:42:10.021Z,31.50
2017-08-23T14:44:36.045Z,32.10
2017-08-23T14:47:02.134Z,31.50
2017-08-23T14:49:28.170Z,33.20
2017-08-23T14:51:54.193Z,33.00
2017-08-23T14:54:20.251Z,31.80
2017-08-23T14:56:46.293Z,32.50
2017-08-23T14:59:12.351Z,32.00
2017-08-23T15:01:38.405Z,30.70
2017-08-23T15:04:04.442Z,30.50
2017-08-23T15:06:30.477Z,30.70
2017-08-23T15:08:56.535Z,29.60
2017-08-23T15:11:22.597Z,30.00
2017-08-23T15:13:48.664Z,30.10
2017-08-23T15:16:14.718Z,30.80
2017-08-23T15:18:40.757Z,30.10
2017-08-23T15:21:06.801Z,30.30
2017-08-23T15:23:32.837Z,30.20
2017-08-23T15:25:58.881Z,30.70
2017-08-23T15:28:24.910Z,30.70
2017-08-23T15:30:50.937Z,31.10
2017-08-23T15:33:16.961Z,32.00
2017-08-23T15:35:43.010Z,32.60
2017-08-23T15:38:09.038Z,32.40
2017-08-23T15:40:35.078Z,31.90
2017-08-23T15:43:01.118Z,31.30
2017-08-23T15:45:27.172Z,31.80
2017-08-23T15:47:53.195Z,32.70
2017-08-23T15:50:19.249Z,31.20
2017-08-23T15:52:45.285Z,32.70
2017-08-23T15:55:11.321Z,33.80
2017-08-23T15:57:37.345Z,32.50
2017-08-23T16:00:03.364Z,31.50
2017-08-23T16:02:29.409Z,32.00
2017-08-23T16:04:55.418Z,32.40
2017-08-23T16:07:21.453Z,33.70
2017-08-23T16:09:47.485Z,34.00
2017-08-23T16:12:13.521Z,34.40
2017-08-23T16:14:39.541Z,35.60
2017-08-23T16:17:05.581Z,36.00
2017-08-23T16:19:31.605Z,37.60
2017-08-23T16:21:57.660Z,37.30
2017-08-23T16:24:23.706Z,37.80
2017-08-23T16:26:49.778Z,38.50
2017-08-23T16:29:15.833Z,40.20
2017-08-23T16:31:41.873Z,40.10
2017-08-23T16:34:07.925Z,41.10
2017-08-23T16:36:33.966Z,42.00
2017-08-23T16:38:59.997Z,43.00
2017-08-23T16:41:26.329Z,44.40
2017-08-23T16:43:52.485Z,45.30
2017-08-23T16:46:18.525Z,45.00
2017-08-23T16:48:44.595Z,44.80
2017-08-23T16:51:10.653Z,46.10
2017-08-23T16:53:36.723Z,46.40
2017-08-23T16:56:02.759Z,46.80
2017-08-23T16:58:29.529Z,47.20
2017-08-23T17:00:55.602Z,47.20
2017-08-23T17:03:21.655Z,47.60
2017-08-23T17:05:47.698Z,47.80
2017-08-23T17:08:13.725Z,48.40
2017-08-23T17:10:39.769Z,49.50
2017-08-23T17:13:05.817Z,49.70
2017-08-23T17:15:31.855Z,49.80
2017-08-23T17:17:57.878Z,50.10
2017-08-23T17:20:23.902Z,51.60
2017-08-23T17:22:49.928Z,51.80
2017-08-23T17:25:15.978Z,51.00
2017-08-23T17:27:42.003Z,51.60
2017-08-23T17:30:08.053Z,52.00
2017-08-23T17:32:34.076Z,52.10
2017-08-23T17:35:00.117Z,52.10
2017-08-23T17:37:26.162Z,52.50
2017-08-23T17:39:52.215Z,52.60
2017-08-23T17:42:18.257Z,53.70
2017-08-23T17:44:44.284Z,53.80
2017-08-23T17:47:10.332Z,53.60
2017-08-23T17:49:36.361Z,53.70
2017-08-23T17:52:02.423Z,54.40
2017-08-23T17:54:28.453Z,53.90
2017-08-23T17:56:54.481Z,54.50
2017-08-23T17:59:20.517Z,54.80
2017-08-23T18:01:46.597Z,54.70
2017-08-23T18:04:13.361Z,55.20
2017-08-23T18:06:39.384Z,55.20
2017-08-23T18:09:05.422Z,56.00
2017-08-23T18:11:31.450Z,55.40
2017-08-23T18:13:57.513Z,57.50
2017-08-23T18:16:23.566Z,55.90
2017-08-23T18:18:49.617Z,55.90
2017-08-23T18:21:15.669Z,56.40
2017-08-23T18:23:41.731Z,57.30
2017-08-23T18:26:07.792Z,56.50
2017-08-23T18:28:33.845Z,55.30
2017-08-23T18:30:59.885Z,56.30
2017-08-23T18:33:25.909Z,56.20
2017-08-23T18:35:51.957Z,56.00
2017-08-23T18:38:18.083Z,56.80
2017-08-23T18:40:44.121Z,56.10
2017-08-23T18:43:10.152Z,57.80
2017-08-23T18:45:36.213Z,58.50
2017-08-23T18:48:02.318Z,57.50
2017-08-23T18:50:28.362Z,59.10
2017-08-23T18:52:54.385Z,60.30
2017-08-23T18:55:20.429Z,59.00
2017-08-23T18:57:46.484Z,59.40
2017-08-23T19:00:12.513Z,59.90
2017-08-23T19:02:38.585Z,59.00
2017-08-23T19:05:04.632Z,59.70
2017-08-23T19:07:30.691Z,61.50
2017-08-23T19:09:56.738Z,61.40
2017-08-23T19:12:22.776Z,61.30
2017-08-23T19:14:48.804Z,62.20
2017-08-23T19:17:14.826Z,61.60
2017-08-23T19:19:40.853Z,62.30
2017-08-23T19:22:06.916Z,61.10
2017-08-23T19:24:32.947Z,62.20
2017-08-23T19:26:59.047Z,62.40
2017-08-23T19:29:25.098Z,62.50
2017-08-23T19:31:51.123Z,62.50
2017-08-23T19:34:17.165Z,62.20
2017-08-23T19:36:43.201Z,62.40
2017-08-23T19:39:09.243Z,62.30
2017-08-23T19:41:35.276Z,61.80
2017-08-23T19:44:01.304Z,63.20
2017-08-23T19:46:27.340Z,62.50
2017-08-23T19:48:53.374Z,62.10
2017-08-23T19:51:19.408Z,63.90
2017-08-23T19:53:45.438Z,62.20
2017-08-23T19:56:11.457Z,62.00
2017-08-23T19:58:37.485Z,61.40
2017-08-23T20:01:03.526Z,60.90
2017-08-23T20:03:29.584Z,61.10
2017-08-23T20:05:55.710Z,64.20
2017-08-23T20:08:21.757Z,63.20
2017-08-23T20:10:47.804Z,61.90
2017-08-23T20:13:13.837Z,61.90
2017-08-23T20:15:39.877Z,62.50
2017-08-23T20:18:05.930Z,62.90
2017-08-23T20:20:32.004Z,62.80
2017-08-23T20:22:58.146Z,64.00
2017-08-23T20:25:24.205Z,63.40
2017-08-23T20:27:50.241Z,61.30
2017-08-23T20:30:16.264Z,63.40
2017-08-23T20:32:42.289Z,62.00
2017-08-23T20:35:08.312Z,61.30
2017-08-23T20:37:34.330Z,62.20
2017-08-23T20:40:00.381Z,63.30
2017-08-23T20:42:26.419Z,63.00
2017-08-23T20:44:52.481Z,62.60
2017-08-23T20:47:18.532Z,63.90
2017-08-23T20:49:44.649Z,63.10
2017-08-23T20:52:10.695Z,64.40
2017-08-23T20:54:36.859Z,64.70
2017-08-23T20:57:03.045Z,64.20
2017-08-23T20:59:29.197Z,64.80
2017-08-23T21:01:56.654Z,65.40
2017-08-23T21:04:22.702Z,65.30
2017-08-23T21:06:48.742Z,64.80
2017-08-23T21:09:14.778Z,64.90
2017-08-23T21:11:41.619Z,65.60
2017-08-23T21:14:07.846Z,64.20
2017-08-23T21:16:33.909Z,65.70
2017-08-23T21:18:59.968Z,64.90
2017-08-23T21:21:26.233Z,65.70
2017-08-23T21:23:53.180Z,65.60
2017-08-23T21:26:19.316Z,66.20
2017-08-23T21:28:45.445Z,66.40
2017-08-23T21:31:11.499Z,66.60
2017-08-23T21:33:37.544Z,66.20
2017-08-23T21:36:03.607Z,66.60
2017-08-23T21:38:29.641Z,67.70
2017-08-23T21:40:55.701Z,67.40
2017-08-23T21:43:21.740Z,67.90
2017-08-23T21:45:47.778Z,68.40
2017-08-23T21:48:13.807Z,67.20
2017-08-23T21:50:39.838Z,67.70
2017-08-23T21:53:05.877Z,68.10
2017-08-23T21:55:31.908Z,67.20
2017-08-23T21:57:57.949Z,66.20
2017-08-23T22:00:23.973Z,66.30
2017-08-23T22:02:50.022Z,66.50
2017-08-23T22:05:16.052Z,66.70
2017-08-23T22:07:42.077Z,67.50
2017-08-23T22:10:08.117Z,67.70
2017-08-23T22:12:34.141Z,69.10
2017-08-23T22:15:00.165Z,68.60
2017-08-23T22:17:26.218Z,67.80
2017-08-23T22:19:52.242Z,68.00
2017-08-23T22:22:18.265Z,68.00
2017-08-23T22:24:44.309Z,68.90
2017-08-23T22:27:10.322Z,67.70
2017-08-23T22:29:36.361Z,67.90
2017-08-23T22:32:02.381Z,68.30
2017-08-23T22:34:28.433Z,68.90
2017-08-23T22:36:54.482Z,68.30
2017-08-23T22:39:20.605Z,68.60
2017-08-23T22:41:46.662Z,68.90
2017-08-23T22:44:12.705Z,68.80
2017-08-23T22:46:38.732Z,69.10
2017-08-23T22:49:04.792Z,69.10
2017-08-23T22:51:30.865Z,69.60
2017-08-23T22:53:56.928Z,69.60
2017-08-23T22:56:22.981Z,69.60
2017-08-23T22:58:49.036Z,70.00
2017-08-23T23:01:15.118Z,70.00
2017-08-23T23:03:41.161Z,69.90
2017-08-23T23:06:07.224Z,70.00
2017-08-23T23:08:34.002Z,70.50
2017-08-23T23:11:00.025Z,70.40
2017-08-23T23:13:26.039Z,70.00
2017-08-23T23:15:52.071Z,71.00
2017-08-23T23:18:18.085Z,71.30
2017-08-23T23:20:44.129Z,71.10
2017-08-23T23:23:10.170Z,71.40
2017-08-23T23:25:36.208Z,71.70
2017-08-23T23:28:02.237Z,71.60
2017-08-23T23:30:28.274Z,72.00
2017-08-23T23:32:54.305Z,71.80
2017-08-23T23:35:20.350Z,72.10
2017-08-23T23:37:46.374Z,71.80
2017-08-23T23:40:12.432Z,71.80
2017-08-23T23:42:38.493Z,72.70
2017-08-23T23:45:04.530Z,72.90
2017-08-23T23:47:30.570Z,73.20
2017-08-23T23:49:56.661Z,73.10
2017-08-23T23:52:22.726Z,73.10
2017-08-23T23:54:48.755Z,73.30
2017-08-23T23:57:14.853Z,73.20
2017-08-23T23:59:40.879Z,72.90
